sensor_id;sensor_type;location;lat;lon;timestamp;P1;durP1;ratioP1;P2;durP2;ratioP2
37305;SDS011;23193;42.656;21.170;2024-02-16T00:01:38;167.25;;;81.43;;
37305;SDS011;23193;42.656;21.170;2024-02-16T00:04:05;193.73;;;87.53;;
37305;SDS011;23193;42.656;21.170;2024-02-16T00:06:32;182.55;;;84.55;;
37305;SDS011;23193;42.656;21.170;2024-02-16T00:09:00;188.63;;;86.47;;
37305;SDS011;23193;42.656;21.170;2024-02-16T00:11:28;181.65;;;83.18;;
37305;SDS011;23193;42.656;21.170;2024-02-16T00:13:56;180.32;;;89.43;;
37305;SDS011;23193;42.656;21.170;2024-02-16T00:16:24;193.02;;;93.65;;
37305;SDS011;23193;42.656;21.170;2024-02-16T00:18:51;196.48;;;90.63;;
37305;SDS011;23193;42.656;21.170;2024-02-16T00:21:18;189.00;;;89.20;;
37305;SDS011;23193;42.656;21.170;2024-02-16T00:23:45;198.68;;;91.82;;
37305;SDS011;23193;42.656;21.170;2024-02-16T00:26:13;200.38;;;94.60;;
37305;SDS011;23193;42.656;21.170;2024-02-16T00:28:40;195.73;;;91.57;;
37305;SDS011;23193;42.656;21.170;2024-02-16T00:31:09;193.00;;;91.88;;
37305;SDS011;23193;42.656;21.170;2024-02-16T00:33:36;192.40;;;93.50;;
37305;SDS011;23193;42.656;21.170;2024-02-16T00:36:03;194.35;;;97.00;;
37305;SDS011;23193;42.656;21.170;2024-02-16T00:38:30;204.27;;;98.00;;
37305;SDS011;23193;42.656;21.170;2024-02-16T00:40:57;202.43;;;98.50;;
37305;SDS011;23193;42.656;21.170;2024-02-16T00:43:25;208.65;;;102.55;;
37305;SDS011;23193;42.656;21.170;2024-02-16T00:45:52;215.18;;;104.18;;
37305;SDS011;23193;42.656;21.170;2024-02-16T00:48:19;221.85;;;104.45;;
37305;SDS011;23193;42.656;21.170;2024-02-16T00:50:46;211.05;;;100.15;;
37305;SDS011;23193;42.656;21.170;2024-02-16T00:53:14;218.25;;;99.22;;
37305;SDS011;23193;42.656;21.170;2024-02-16T00:55:41;206.27;;;100.82;;
37305;SDS011;23193;42.656;21.170;2024-02-16T00:58:08;184.82;;;89.55;;
37305;SDS011;23193;42.656;21.170;2024-02-16T01:00:35;190.98;;;90.18;;
37305;SDS011;23193;42.656;21.170;2024-02-16T01:03:03;170.60;;;75.78;;
37305;SDS011;23193;42.656;21.170;2024-02-16T01:05:30;161.00;;;75.65;;
37305;SDS011;23193;42.656;21.170;2024-02-16T01:07:57;154.75;;;75.80;;
37305;SDS011;23193;42.656;21.170;2024-02-16T01:10:24;161.23;;;74.55;;
37305;SDS011;23193;42.656;21.170;2024-02-16T01:12:51;158.77;;;74.53;;
37305;SDS011;23193;42.656;21.170;2024-02-16T01:15:19;155.90;;;72.88;;
37305;SDS011;23193;42.656;21.170;2024-02-16T01:17:49;152.77;;;70.65;;
37305;SDS011;23193;42.656;21.170;2024-02-16T01:20:16;154.90;;;72.78;;
37305;SDS011;23193;42.656;21.170;2024-02-16T01:22:44;148.63;;;71.25;;
37305;SDS011;23193;42.656;21.170;2024-02-16T01:25:11;153.55;;;70.93;;
37305;SDS011;23193;42.656;21.170;2024-02-16T01:27:39;140.80;;;68.10;;
37305;SDS011;23193;42.656;21.170;2024-02-16T01:30:08;154.52;;;68.13;;
37305;SDS011;23193;42.656;21.170;2024-02-16T01:32:35;131.20;;;61.92;;
37305;SDS011;23193;42.656;21.170;2024-02-16T01:35:02;121.07;;;61.53;;
37305;SDS011;23193;42.656;21.170;2024-02-16T01:37:29;119.90;;;58.80;;
37305;SDS011;23193;42.656;21.170;2024-02-16T01:39:57;122.90;;;57.72;;
37305;SDS011;23193;42.656;21.170;2024-02-16T01:42:25;124.82;;;58.55;;
37305;SDS011;23193;42.656;21.170;2024-02-16T01:44:53;119.88;;;54.45;;
37305;SDS011;23193;42.656;21.170;2024-02-16T01:47:20;117.63;;;57.55;;
37305;SDS011;23193;42.656;21.170;2024-02-16T01:49:47;125.97;;;58.50;;
37305;SDS011;23193;42.656;21.170;2024-02-16T01:52:15;107.68;;;53.95;;
37305;SDS011;23193;42.656;21.170;2024-02-16T01:54:42;119.68;;;55.00;;
37305;SDS011;23193;42.656;21.170;2024-02-16T01:57:09;110.05;;;52.35;;
37305;SDS011;23193;42.656;21.170;2024-02-16T01:59:38;118.43;;;53.40;;
37305;SDS011;23193;42.656;21.170;2024-02-16T02:02:07;106.55;;;52.50;;
37305;SDS011;23193;42.656;21.170;2024-02-16T02:04:36;119.95;;;56.72;;
37305;SDS011;23193;42.656;21.170;2024-02-16T02:07:11;121.38;;;53.92;;
37305;SDS011;23193;42.656;21.170;2024-02-16T02:09:38;139.35;;;61.30;;
37305;SDS011;23193;42.656;21.170;2024-02-16T02:12:05;124.35;;;58.47;;
37305;SDS011;23193;42.656;21.170;2024-02-16T02:14:32;125.43;;;60.70;;
37305;SDS011;23193;42.656;21.170;2024-02-16T02:16:59;130.75;;;63.53;;
37305;SDS011;23193;42.656;21.170;2024-02-16T02:19:27;135.65;;;65.70;;
37305;SDS011;23193;42.656;21.170;2024-02-16T02:21:54;132.90;;;64.72;;
37305;SDS011;23193;42.656;21.170;2024-02-16T02:24:22;142.05;;;65.30;;
37305;SDS011;23193;42.656;21.170;2024-02-16T02:26:49;132.95;;;65.70;;
37305;SDS011;23193;42.656;21.170;2024-02-16T02:29:16;138.95;;;66.43;;
37305;SDS011;23193;42.656;21.170;2024-02-16T02:31:43;137.85;;;67.28;;
37305;SDS011;23193;42.656;21.170;2024-02-16T02:34:10;150.70;;;71.68;;
37305;SDS011;23193;42.656;21.170;2024-02-16T02:36:37;165.20;;;78.35;;
37305;SDS011;23193;42.656;21.170;2024-02-16T02:39:05;143.05;;;67.55;;
37305;SDS011;23193;42.656;21.170;2024-02-16T02:41:33;106.78;;;52.78;;
37305;SDS011;23193;42.656;21.170;2024-02-16T02:44:00;90.25;;;46.33;;
37305;SDS011;23193;42.656;21.170;2024-02-16T02:46:29;79.50;;;39.92;;
37305;SDS011;23193;42.656;21.170;2024-02-16T02:48:56;103.68;;;51.17;;
37305;SDS011;23193;42.656;21.170;2024-02-16T02:51:23;106.13;;;51.28;;
37305;SDS011;23193;42.656;21.170;2024-02-16T02:53:51;90.90;;;48.38;;
37305;SDS011;23193;42.656;21.170;2024-02-16T02:56:18;93.03;;;45.55;;
37305;SDS011;23193;42.656;21.170;2024-02-16T02:58:45;86.18;;;43.88;;
37305;SDS011;23193;42.656;21.170;2024-02-16T03:01:12;86.72;;;43.28;;
37305;SDS011;23193;42.656;21.170;2024-02-16T03:03:40;90.32;;;45.10;;
37305;SDS011;23193;42.656;21.170;2024-02-16T03:06:07;96.97;;;46.03;;
37305;SDS011;23193;42.656;21.170;2024-02-16T03:08:37;91.50;;;46.15;;
37305;SDS011;23193;42.656;21.170;2024-02-16T03:11:04;105.53;;;48.83;;
37305;SDS011;23193;42.656;21.170;2024-02-16T03:13:31;98.60;;;49.25;;
37305;SDS011;23193;42.656;21.170;2024-02-16T03:15:58;93.65;;;47.92;;
37305;SDS011;23193;42.656;21.170;2024-02-16T03:18:29;95.85;;;47.22;;
37305;SDS011;23193;42.656;21.170;2024-02-16T03:20:57;94.45;;;46.47;;
37305;SDS011;23193;42.656;21.170;2024-02-16T03:23:24;94.72;;;45.83;;
37305;SDS011;23193;42.656;21.170;2024-02-16T03:25:51;99.20;;;45.65;;
37305;SDS011;23193;42.656;21.170;2024-02-16T03:28:18;92.88;;;46.25;;
37305;SDS011;23193;42.656;21.170;2024-02-16T03:30:45;105.97;;;48.58;;
37305;SDS011;23193;42.656;21.170;2024-02-16T03:33:13;95.82;;;46.13;;
37305;SDS011;23193;42.656;21.170;2024-02-16T03:35:40;92.60;;;47.35;;
37305;SDS011;23193;42.656;21.170;2024-02-16T03:38:07;86.18;;;42.85;;
37305;SDS011;23193;42.656;21.170;2024-02-16T03:40:35;75.90;;;38.97;;
37305;SDS011;23193;42.656;21.170;2024-02-16T03:43:02;82.95;;;42.47;;
37305;SDS011;23193;42.656;21.170;2024-02-16T03:45:29;82.95;;;42.50;;
37305;SDS011;23193;42.656;21.170;2024-02-16T03:47:56;88.53;;;41.67;;
37305;SDS011;23193;42.656;21.170;2024-02-16T03:50:26;93.40;;;40.08;;
37305;SDS011;23193;42.656;21.170;2024-02-16T03:52:53;78.22;;;40.25;;
37305;SDS011;23193;42.656;21.170;2024-02-16T03:55:20;82.15;;;39.78;;
37305;SDS011;23193;42.656;21.170;2024-02-16T03:57:48;77.32;;;37.58;;
37305;SDS011;23193;42.656;21.170;2024-02-16T04:00:15;70.47;;;36.95;;
37305;SDS011;23193;42.656;21.170;2024-02-16T04:02:45;78.55;;;39.80;;
37305;SDS011;23193;42.656;21.170;2024-02-16T04:05:12;75.75;;;37.30;;
37305;SDS011;23193;42.656;21.170;2024-02-16T04:07:39;71.68;;;36.35;;
37305;SDS011;23193;42.656;21.170;2024-02-16T04:10:07;67.57;;;35.10;;
37305;SDS011;23193;42.656;21.170;2024-02-16T04:12:35;61.28;;;33.30;;
37305;SDS011;23193;42.656;21.170;2024-02-16T04:15:03;74.00;;;33.80;;
37305;SDS011;23193;42.656;21.170;2024-02-16T04:17:30;70.78;;;37.03;;
37305;SDS011;23193;42.656;21.170;2024-02-16T04:19:57;78.70;;;39.20;;
37305;SDS011;23193;42.656;21.170;2024-02-16T04:22:25;75.68;;;39.05;;
37305;SDS011;23193;42.656;21.170;2024-02-16T04:24:51;72.25;;;35.80;;
37305;SDS011;23193;42.656;21.170;2024-02-16T04:27:19;71.47;;;36.33;;
37305;SDS011;23193;42.656;21.170;2024-02-16T04:29:46;71.57;;;35.58;;
37305;SDS011;23193;42.656;21.170;2024-02-16T04:32:13;69.07;;;35.88;;
37305;SDS011;23193;42.656;21.170;2024-02-16T04:34:40;81.20;;;36.20;;
37305;SDS011;23193;42.656;21.170;2024-02-16T04:37:07;76.40;;;35.05;;
37305;SDS011;23193;42.656;21.170;2024-02-16T04:39:34;66.72;;;33.38;;
37305;SDS011;23193;42.656;21.170;2024-02-16T04:42:01;69.18;;;35.22;;
37305;SDS011;23193;42.656;21.170;2024-02-16T04:44:29;75.28;;;36.47;;
37305;SDS011;23193;42.656;21.170;2024-02-16T04:46:56;70.75;;;38.05;;
37305;SDS011;23193;42.656;21.170;2024-02-16T04:49:23;78.63;;;36.88;;
37305;SDS011;23193;42.656;21.170;2024-02-16T04:51:54;69.70;;;36.35;;
37305;SDS011;23193;42.656;21.170;2024-02-16T04:54:21;90.05;;;42.65;;
37305;SDS011;23193;42.656;21.170;2024-02-16T04:56:49;74.25;;;38.45;;
37305;SDS011;23193;42.656;21.170;2024-02-16T04:59:16;75.70;;;38.92;;
37305;SDS011;23193;42.656;21.170;2024-02-16T05:01:44;86.80;;;42.33;;
37305;SDS011;23193;42.656;21.170;2024-02-16T05:04:14;95.72;;;46.90;;
37305;SDS011;23193;42.656;21.170;2024-02-16T05:06:44;101.43;;;48.13;;
37305;SDS011;23193;42.656;21.170;2024-02-16T05:09:13;94.88;;;46.88;;
37305;SDS011;23193;42.656;21.170;2024-02-16T05:11:44;90.45;;;44.90;;
37305;SDS011;23193;42.656;21.170;2024-02-16T05:14:11;89.53;;;45.78;;
37305;SDS011;23193;42.656;21.170;2024-02-16T05:16:43;90.35;;;43.85;;
37305;SDS011;23193;42.656;21.170;2024-02-16T05:19:10;88.85;;;44.95;;
37305;SDS011;23193;42.656;21.170;2024-02-16T05:21:38;97.38;;;45.95;;
37305;SDS011;23193;42.656;21.170;2024-02-16T05:24:05;93.32;;;45.25;;
37305;SDS011;23193;42.656;21.170;2024-02-16T05:26:32;82.18;;;43.78;;
37305;SDS011;23193;42.656;21.170;2024-02-16T05:28:59;97.25;;;46.15;;
37305;SDS011;23193;42.656;21.170;2024-02-16T05:31:26;100.10;;;53.10;;
37305;SDS011;23193;42.656;21.170;2024-02-16T05:33:54;117.95;;;57.92;;
37305;SDS011;23193;42.656;21.170;2024-02-16T05:36:21;115.30;;;52.42;;
37305;SDS011;23193;42.656;21.170;2024-02-16T05:38:52;84.88;;;41.15;;
37305;SDS011;23193;42.656;21.170;2024-02-16T05:41:24;70.57;;;38.75;;
37305;SDS011;23193;42.656;21.170;2024-02-16T05:43:51;84.68;;;43.55;;
37305;SDS011;23193;42.656;21.170;2024-02-16T05:46:20;82.53;;;42.10;;
37305;SDS011;23193;42.656;21.170;2024-02-16T05:48:47;79.75;;;39.63;;
37305;SDS011;23193;42.656;21.170;2024-02-16T05:51:15;76.15;;;39.05;;
37305;SDS011;23193;42.656;21.170;2024-02-16T05:53:44;78.53;;;39.05;;
37305;SDS011;23193;42.656;21.170;2024-02-16T05:56:14;84.93;;;42.95;;
37305;SDS011;23193;42.656;21.170;2024-02-16T05:58:41;92.38;;;47.30;;
37305;SDS011;23193;42.656;21.170;2024-02-16T06:01:09;88.38;;;43.55;;
37305;SDS011;23193;42.656;21.170;2024-02-16T06:03:41;95.97;;;47.00;;
37305;SDS011;23193;42.656;21.170;2024-02-16T06:06:09;90.47;;;46.08;;
37305;SDS011;23193;42.656;21.170;2024-02-16T06:08:36;92.15;;;44.67;;
37305;SDS011;23193;42.656;21.170;2024-02-16T06:11:09;91.70;;;46.92;;
37305;SDS011;23193;42.656;21.170;2024-02-16T06:13:36;91.53;;;46.85;;
37305;SDS011;23193;42.656;21.170;2024-02-16T06:16:06;104.00;;;44.97;;
37305;SDS011;23193;42.656;21.170;2024-02-16T06:27:53;116.75;;;55.50;;
37305;SDS011;23193;42.656;21.170;2024-02-16T06:30:21;105.53;;;48.33;;
37305;SDS011;23193;42.656;21.170;2024-02-16T06:32:48;110.20;;;56.10;;
37305;SDS011;23193;42.656;21.170;2024-02-16T06:35:15;122.13;;;54.97;;
37305;SDS011;23193;42.656;21.170;2024-02-16T06:37:42;108.75;;;50.30;;
37305;SDS011;23193;42.656;21.170;2024-02-16T06:40:10;97.22;;;48.30;;
37305;SDS011;23193;42.656;21.170;2024-02-16T06:42:37;94.80;;;48.28;;
37305;SDS011;23193;42.656;21.170;2024-02-16T06:45:05;100.90;;;45.22;;
37305;SDS011;23193;42.656;21.170;2024-02-16T06:47:33;84.93;;;44.22;;
37305;SDS011;23193;42.656;21.170;2024-02-16T06:50:01;98.43;;;42.67;;
37305;SDS011;23193;42.656;21.170;2024-02-16T06:52:28;95.25;;;43.90;;
37305;SDS011;23193;42.656;21.170;2024-02-16T06:54:55;121.18;;;56.70;;
37305;SDS011;23193;42.656;21.170;2024-02-16T06:57:22;137.95;;;66.40;;
37305;SDS011;23193;42.656;21.170;2024-02-16T06:59:52;118.47;;;58.83;;
37305;SDS011;23193;42.656;21.170;2024-02-16T07:02:20;107.88;;;52.75;;
37305;SDS011;23193;42.656;21.170;2024-02-16T07:04:47;98.85;;;49.67;;
37305;SDS011;23193;42.656;21.170;2024-02-16T07:07:14;95.28;;;48.05;;
37305;SDS011;23193;42.656;21.170;2024-02-16T07:09:43;99.95;;;45.97;;
37305;SDS011;23193;42.656;21.170;2024-02-16T07:12:10;101.90;;;45.15;;
37305;SDS011;23193;42.656;21.170;2024-02-16T07:14:39;86.10;;;42.25;;
37305;SDS011;23193;42.656;21.170;2024-02-16T07:17:06;87.03;;;44.30;;
37305;SDS011;23193;42.656;21.170;2024-02-16T07:19:37;104.23;;;46.47;;
37305;SDS011;23193;42.656;21.170;2024-02-16T07:22:04;84.95;;;42.05;;
37305;SDS011;23193;42.656;21.170;2024-02-16T07:24:33;87.00;;;39.72;;
37305;SDS011;23193;42.656;21.170;2024-02-16T07:27:01;87.18;;;41.75;;
37305;SDS011;23193;42.656;21.170;2024-02-16T07:29:28;170.93;;;79.03;;
37305;SDS011;23193;42.656;21.170;2024-02-16T07:31:55;156.70;;;69.97;;
37305;SDS011;23193;42.656;21.170;2024-02-16T07:34:23;98.22;;;46.80;;
37305;SDS011;23193;42.656;21.170;2024-02-16T07:36:50;109.43;;;52.45;;
37305;SDS011;23193;42.656;21.170;2024-02-16T07:39:19;86.38;;;43.60;;
37305;SDS011;23193;42.656;21.170;2024-02-16T07:41:49;86.43;;;43.55;;
37305;SDS011;23193;42.656;21.170;2024-02-16T07:44:16;89.95;;;46.00;;
37305;SDS011;23193;42.656;21.170;2024-02-16T07:46:43;115.13;;;52.83;;
37305;SDS011;23193;42.656;21.170;2024-02-16T07:49:12;124.70;;;51.70;;
37305;SDS011;23193;42.656;21.170;2024-02-16T07:51:40;111.40;;;52.38;;
37305;SDS011;23193;42.656;21.170;2024-02-16T07:54:07;106.00;;;48.45;;
37305;SDS011;23193;42.656;21.170;2024-02-16T07:56:35;105.43;;;48.60;;
37305;SDS011;23193;42.656;21.170;2024-02-16T07:59:02;103.38;;;49.65;;
37305;SDS011;23193;42.656;21.170;2024-02-16T08:01:29;89.78;;;45.03;;
37305;SDS011;23193;42.656;21.170;2024-02-16T08:03:56;103.97;;;53.88;;
37305;SDS011;23193;42.656;21.170;2024-02-16T08:06:26;100.68;;;51.38;;
37305;SDS011;23193;42.656;21.170;2024-02-16T08:11:27;91.57;;;43.80;;
37305;SDS011;23193;42.656;21.170;2024-02-16T08:13:54;92.30;;;44.10;;
37305;SDS011;23193;42.656;21.170;2024-02-16T08:16:22;78.93;;;42.55;;
37305;SDS011;23193;42.656;21.170;2024-02-16T08:18:49;104.10;;;46.20;;
37305;SDS011;23193;42.656;21.170;2024-02-16T08:21:17;89.22;;;45.30;;
37305;SDS011;23193;42.656;21.170;2024-02-16T08:23:44;92.93;;;42.88;;
37305;SDS011;23193;42.656;21.170;2024-02-16T08:26:11;105.68;;;42.72;;
37305;SDS011;23193;42.656;21.170;2024-02-16T08:28:38;74.65;;;40.50;;
37305;SDS011;23193;42.656;21.170;2024-02-16T08:31:06;81.57;;;36.38;;
37305;SDS011;23193;42.656;21.170;2024-02-16T08:33:37;72.60;;;37.75;;
37305;SDS011;23193;42.656;21.170;2024-02-16T08:36:07;83.93;;;37.17;;
37305;SDS011;23193;42.656;21.170;2024-02-16T08:38:34;78.57;;;36.63;;
37305;SDS011;23193;42.656;21.170;2024-02-16T08:41:03;86.18;;;36.03;;
37305;SDS011;23193;42.656;21.170;2024-02-16T08:43:30;76.65;;;34.55;;
37305;SDS011;23193;42.656;21.170;2024-02-16T08:45:57;77.68;;;33.50;;
37305;SDS011;23193;42.656;21.170;2024-02-16T08:48:24;76.75;;;33.13;;
37305;SDS011;23193;42.656;21.170;2024-02-16T08:50:52;72.22;;;30.40;;
37305;SDS011;23193;42.656;21.170;2024-02-16T08:53:19;82.43;;;30.58;;
37305;SDS011;23193;42.656;21.170;2024-02-16T08:55:46;76.50;;;31.30;;
37305;SDS011;23193;42.656;21.170;2024-02-16T08:58:14;77.85;;;32.97;;
37305;SDS011;23193;42.656;21.170;2024-02-16T09:00:41;74.40;;;28.50;;
37305;SDS011;23193;42.656;21.170;2024-02-16T09:03:08;58.30;;;26.52;;
37305;SDS011;23193;42.656;21.170;2024-02-16T09:05:36;65.30;;;26.95;;
37305;SDS011;23193;42.656;21.170;2024-02-16T09:08:03;56.85;;;25.83;;
37305;SDS011;23193;42.656;21.170;2024-02-16T09:10:32;76.38;;;29.90;;
37305;SDS011;23193;42.656;21.170;2024-02-16T09:13:02;84.60;;;29.58;;
37305;SDS011;23193;42.656;21.170;2024-02-16T09:15:29;85.90;;;30.20;;
37305;SDS011;23193;42.656;21.170;2024-02-16T09:17:56;71.60;;;30.20;;
37305;SDS011;23193;42.656;21.170;2024-02-16T09:20:26;73.53;;;25.23;;
37305;SDS011;23193;42.656;21.170;2024-02-16T09:23:00;60.28;;;24.38;;
37305;SDS011;23193;42.656;21.170;2024-02-16T09:25:27;59.13;;;24.00;;
37305;SDS011;23193;42.656;21.170;2024-02-16T09:27:54;62.58;;;24.40;;
37305;SDS011;23193;42.656;21.170;2024-02-16T09:30:22;49.45;;;24.08;;
37305;SDS011;23193;42.656;21.170;2024-02-16T09:32:49;52.40;;;24.98;;
37305;SDS011;23193;42.656;21.170;2024-02-16T09:35:18;43.90;;;23.55;;
37305;SDS011;23193;42.656;21.170;2024-02-16T09:37:45;47.58;;;21.42;;
37305;SDS011;23193;42.656;21.170;2024-02-16T09:40:12;38.67;;;19.95;;
37305;SDS011;23193;42.656;21.170;2024-02-16T09:42:40;33.08;;;18.67;;
37305;SDS011;23193;42.656;21.170;2024-02-16T09:45:08;37.40;;;19.52;;
37305;SDS011;23193;42.656;21.170;2024-02-16T09:47:36;34.08;;;18.80;;
37305;SDS011;23193;42.656;21.170;2024-02-16T09:50:04;26.35;;;16.63;;
37305;SDS011;23193;42.656;21.170;2024-02-16T09:52:32;26.63;;;16.60;;
37305;SDS011;23193;42.656;21.170;2024-02-16T09:55:02;29.58;;;16.63;;
37305;SDS011;23193;42.656;21.170;2024-02-16T09:57:29;28.48;;;15.52;;
37305;SDS011;23193;42.656;21.170;2024-02-16T09:59:57;24.30;;;15.25;;
37305;SDS011;23193;42.656;21.170;2024-02-16T10:02:24;30.58;;;15.27;;
37305;SDS011;23193;42.656;21.170;2024-02-16T10:04:51;26.27;;;16.45;;
37305;SDS011;23193;42.656;21.170;2024-02-16T10:07:30;32.72;;;17.85;;
37305;SDS011;23193;42.656;21.170;2024-02-16T10:09:57;28.63;;;17.60;;
37305;SDS011;23193;42.656;21.170;2024-02-16T10:12:24;42.60;;;17.05;;
37305;SDS011;23193;42.656;21.170;2024-02-16T10:14:55;33.63;;;17.67;;
37305;SDS011;23193;42.656;21.170;2024-02-16T10:17:23;32.80;;;17.75;;
37305;SDS011;23193;42.656;21.170;2024-02-16T10:19:56;38.80;;;17.90;;
37305;SDS011;23193;42.656;21.170;2024-02-16T10:22:24;41.10;;;20.17;;
37305;SDS011;23193;42.656;21.170;2024-02-16T10:24:51;33.97;;;17.52;;
37305;SDS011;23193;42.656;21.170;2024-02-16T10:27:18;34.35;;;17.48;;
37305;SDS011;23193;42.656;21.170;2024-02-16T10:29:47;33.42;;;18.35;;
37305;SDS011;23193;42.656;21.170;2024-02-16T10:32:17;32.37;;;16.90;;
37305;SDS011;23193;42.656;21.170;2024-02-16T10:34:45;28.25;;;15.95;;
37305;SDS011;23193;42.656;21.170;2024-02-16T10:37:13;31.42;;;16.27;;
37305;SDS011;23193;42.656;21.170;2024-02-16T10:39:40;34.80;;;17.60;;
37305;SDS011;23193;42.656;21.170;2024-02-16T10:42:08;29.40;;;16.58;;
37305;SDS011;23193;42.656;21.170;2024-02-16T10:44:36;35.13;;;18.92;;
37305;SDS011;23193;42.656;21.170;2024-02-16T10:47:03;41.15;;;20.13;;
37305;SDS011;23193;42.656;21.170;2024-02-16T10:49:31;27.35;;;15.25;;
37305;SDS011;23193;42.656;21.170;2024-02-16T10:51:59;23.85;;;12.85;;
37305;SDS011;23193;42.656;21.170;2024-02-16T10:54:29;26.60;;;12.30;;
37305;SDS011;23193;42.656;21.170;2024-02-16T10:56:57;27.83;;;14.93;;
37305;SDS011;23193;42.656;21.170;2024-02-16T10:59:24;22.08;;;11.95;;
37305;SDS011;23193;42.656;21.170;2024-02-16T11:01:59;25.50;;;12.25;;
37305;SDS011;23193;42.656;21.170;2024-02-16T11:04:35;25.27;;;13.30;;
37305;SDS011;23193;42.656;21.170;2024-02-16T11:07:09;20.63;;;11.32;;
37305;SDS011;23193;42.656;21.170;2024-02-16T11:09:38;19.08;;;11.88;;
37305;SDS011;23193;42.656;21.170;2024-02-16T11:12:06;22.85;;;11.80;;
37305;SDS011;23193;42.656;21.170;2024-02-16T11:14:39;17.17;;;11.57;;
37305;SDS011;23193;42.656;21.170;2024-02-16T11:17:07;21.25;;;9.52;;
37305;SDS011;23193;42.656;21.170;2024-02-16T11:19:36;24.20;;;12.77;;
37305;SDS011;23193;42.656;21.170;2024-02-16T11:22:06;20.25;;;10.98;;
37305;SDS011;23193;42.656;21.170;2024-02-16T11:24:48;20.05;;;9.77;;
37305;SDS011;23193;42.656;21.170;2024-02-16T11:27:16;20.10;;;9.45;;
37305;SDS011;23193;42.656;21.170;2024-02-16T11:29:47;16.20;;;8.23;;
37305;SDS011;23193;42.656;21.170;2024-02-16T11:32:15;16.63;;;8.77;;
37305;SDS011;23193;42.656;21.170;2024-02-16T11:34:43;15.00;;;8.75;;
37305;SDS011;23193;42.656;21.170;2024-02-16T11:37:12;15.40;;;8.45;;
37305;SDS011;23193;42.656;21.170;2024-02-16T11:39:39;17.27;;;8.32;;
37305;SDS011;23193;42.656;21.170;2024-02-16T11:42:12;19.83;;;7.78;;
37305;SDS011;23193;42.656;21.170;2024-02-16T11:44:49;22.27;;;6.53;;
37305;SDS011;23193;42.656;21.170;2024-02-16T11:47:24;14.50;;;7.30;;
37305;SDS011;23193;42.656;21.170;2024-02-16T11:50:08;17.52;;;7.22;;
37305;SDS011;23193;42.656;21.170;2024-02-16T11:52:39;22.73;;;11.07;;
37305;SDS011;23193;42.656;21.170;2024-02-16T11:55:10;14.18;;;6.60;;
37305;SDS011;23193;42.656;21.170;2024-02-16T11:57:38;12.10;;;6.32;;
37305;SDS011;23193;42.656;21.170;2024-02-16T12:00:06;16.98;;;6.68;;
37305;SDS011;23193;42.656;21.170;2024-02-16T12:02:38;11.55;;;6.60;;
37305;SDS011;23193;42.656;21.170;2024-02-16T12:05:06;20.42;;;10.63;;
37305;SDS011;23193;42.656;21.170;2024-02-16T12:07:37;11.18;;;5.60;;
37305;SDS011;23193;42.656;21.170;2024-02-16T12:10:08;10.85;;;6.35;;
37305;SDS011;23193;42.656;21.170;2024-02-16T12:12:36;12.73;;;5.90;;
37305;SDS011;23193;42.656;21.170;2024-02-16T12:15:04;12.07;;;5.93;;
37305;SDS011;23193;42.656;21.170;2024-02-16T12:17:33;20.00;;;6.38;;
37305;SDS011;23193;42.656;21.170;2024-02-16T12:20:00;9.65;;;5.50;;
37305;SDS011;23193;42.656;21.170;2024-02-16T12:22:27;15.23;;;6.65;;
37305;SDS011;23193;42.656;21.170;2024-02-16T12:24:54;11.77;;;6.57;;
37305;SDS011;23193;42.656;21.170;2024-02-16T12:27:24;12.05;;;6.00;;
37305;SDS011;23193;42.656;21.170;2024-02-16T12:29:51;11.82;;;5.30;;
37305;SDS011;23193;42.656;21.170;2024-02-16T12:32:19;12.13;;;5.40;;
37305;SDS011;23193;42.656;21.170;2024-02-16T12:34:47;9.15;;;5.40;;
37305;SDS011;23193;42.656;21.170;2024-02-16T12:37:15;13.40;;;6.95;;
37305;SDS011;23193;42.656;21.170;2024-02-16T12:39:42;8.82;;;5.57;;
37305;SDS011;23193;42.656;21.170;2024-02-16T12:42:09;13.05;;;4.97;;
37305;SDS011;23193;42.656;21.170;2024-02-16T12:44:36;13.75;;;7.95;;
37305;SDS011;23193;42.656;21.170;2024-02-16T12:47:03;14.70;;;6.72;;
37305;SDS011;23193;42.656;21.170;2024-02-16T12:49:30;20.70;;;10.13;;
37305;SDS011;23193;42.656;21.170;2024-02-16T12:51:57;20.10;;;10.52;;
37305;SDS011;23193;42.656;21.170;2024-02-16T12:54:25;21.70;;;12.15;;
37305;SDS011;23193;42.656;21.170;2024-02-16T12:56:52;24.35;;;11.88;;
37305;SDS011;23193;42.656;21.170;2024-02-16T12:59:20;11.82;;;5.97;;
37305;SDS011;23193;42.656;21.170;2024-02-16T13:01:48;23.35;;;10.00;;
37305;SDS011;23193;42.656;21.170;2024-02-16T13:04:16;15.05;;;9.18;;
37305;SDS011;23193;42.656;21.170;2024-02-16T13:06:49;12.43;;;7.38;;
37305;SDS011;23193;42.656;21.170;2024-02-16T13:09:19;13.48;;;7.13;;
37305;SDS011;23193;42.656;21.170;2024-02-16T13:11:46;19.35;;;10.02;;
37305;SDS011;23193;42.656;21.170;2024-02-16T13:14:22;17.17;;;7.40;;
37305;SDS011;23193;42.656;21.170;2024-02-16T13:16:49;15.25;;;6.45;;
37305;SDS011;23193;42.656;21.170;2024-02-16T13:19:17;12.73;;;6.82;;
37305;SDS011;23193;42.656;21.170;2024-02-16T13:21:46;21.67;;;7.72;;
37305;SDS011;23193;42.656;21.170;2024-02-16T13:24:13;18.50;;;7.53;;
37305;SDS011;23193;42.656;21.170;2024-02-16T13:26:41;18.40;;;5.80;;
37305;SDS011;23193;42.656;21.170;2024-02-16T13:29:09;27.65;;;7.07;;
37305;SDS011;23193;42.656;21.170;2024-02-16T13:31:36;16.73;;;6.30;;
37305;SDS011;23193;42.656;21.170;2024-02-16T13:34:04;23.05;;;6.78;;
37305;SDS011;23193;42.656;21.170;2024-02-16T13:36:32;24.38;;;7.07;;
37305;SDS011;23193;42.656;21.170;2024-02-16T13:38:59;20.80;;;6.55;;
37305;SDS011;23193;42.656;21.170;2024-02-16T13:41:26;22.42;;;8.20;;
37305;SDS011;23193;42.656;21.170;2024-02-16T13:43:54;22.85;;;8.18;;
37305;SDS011;23193;42.656;21.170;2024-02-16T13:46:21;19.15;;;8.18;;
37305;SDS011;23193;42.656;21.170;2024-02-16T13:48:49;29.65;;;9.57;;
37305;SDS011;23193;42.656;21.170;2024-02-16T13:51:16;28.23;;;6.75;;
37305;SDS011;23193;42.656;21.170;2024-02-16T13:53:43;28.23;;;8.60;;
37305;SDS011;23193;42.656;21.170;2024-02-16T13:56:11;30.95;;;11.75;;
37305;SDS011;23193;42.656;21.170;2024-02-16T13:58:38;28.08;;;11.27;;
37305;SDS011;23193;42.656;21.170;2024-02-16T14:01:06;28.13;;;10.55;;
37305;SDS011;23193;42.656;21.170;2024-02-16T14:03:34;27.85;;;11.65;;
37305;SDS011;23193;42.656;21.170;2024-02-16T14:06:04;31.75;;;11.82;;
37305;SDS011;23193;42.656;21.170;2024-02-16T14:08:35;41.60;;;14.55;;
37305;SDS011;23193;42.656;21.170;2024-02-16T14:11:03;33.28;;;11.73;;
37305;SDS011;23193;42.656;21.170;2024-02-16T14:13:30;25.55;;;8.00;;
37305;SDS011;23193;42.656;21.170;2024-02-16T14:15:57;31.35;;;10.50;;
37305;SDS011;23193;42.656;21.170;2024-02-16T14:18:24;36.83;;;10.27;;
37305;SDS011;23193;42.656;21.170;2024-02-16T14:21:01;30.77;;;8.98;;
37305;SDS011;23193;42.656;21.170;2024-02-16T14:23:29;39.13;;;9.25;;